Time;durP1;ratioP1;P1;durP2;ratioP2;P2;SDS_P1;SDS_P2;PMS_P1;PMS_P2;Temp;Humidity;BMP_temperature;BMP_pressure;BME280_temperature;BME280_humidity;BME280_pressure;Samples;Min_cycle;Max_cycle;Signal;HPM_P1;HPM_P2
2021/09/19 00:02:15;;;;;;;2.83;1.35;;;;;;;13.66;100.00;101564.78;6196098;28;20497;-78
2021/09/19 00:05:18;;;;;;;2.08;1.38;;;;;;;13.64;100.00;101561.38;6195919;28;20054;-78
2021/09/19 00:08:19;;;;;;;1.02;0.93;;;;;;;13.63;100.00;101565.81;6195889;28;20042;-78
2021/09/19 00:11:21;;;;;;;1.48;0.90;;;;;;;13.61;100.00;101562.38;6196515;28;20076;-78
2021/09/19 00:14:22;;;;;;;1.85;1.40;;;;;;;13.58;100.00;101557.28;6196186;28;20050;-78
2021/09/19 00:17:24;;;;;;;2.25;1.30;;;;;;;13.59;100.00;101560.75;6196221;28;20047;-79
2021/09/19 00:20:27;;;;;;;2.25;1.08;;;;;;;13.58;100.00;101559.03;6196503;28;20054;-77
2021/09/19 00:23:28;;;;;;;1.67;1.25;;;;;;;13.55;99.65;101564.50;6195660;28;20518;-77
2021/09/19 00:26:29;;;;;;;1.98;1.30;;;;;;;13.50;100.00;101554.19;6196190;28;20053;-77
2021/09/19 00:29:31;;;;;;;2.13;1.27;;;;;;;13.48;100.00;101563.09;6196127;28;20058;-78
2021/09/19 00:32:32;;;;;;;2.85;1.15;;;;;;;13.48;99.47;101555.19;6203479;28;20061;-78
2021/09/19 00:35:35;;;;;;;1.88;1.10;;;;;;;13.43;99.65;101561.56;6255014;22;20043;-77
2021/09/19 00:38:36;;;;;;;3.17;1.40;;;;;;;13.42;99.91;101554.56;6330002;28;20048;-78
2021/09/19 00:41:39;;;;;;;2.03;1.40;;;;;;;13.41;99.30;101552.88;6347323;28;20055;-78
2021/09/19 00:44:41;;;;;;;1.45;1.15;;;;;;;13.37;98.64;101556.59;6347511;28;20083;-78
2021/09/19 00:47:43;;;;;;;2.53;1.10;;;;;;;13.37;99.61;101559.25;6347889;28;20043;-78
2021/09/19 00:50:46;;;;;;;2.78;1.20;;;;;;;13.38;99.03;101557.44;6348163;28;20056;-78
2021/09/19 00:53:51;;;;;;;2.10;1.17;;;;;;;13.38;99.71;101554.81;6347313;28;20043;-78
2021/09/19 00:56:56;;;;;;;1.02;0.82;;;;;;;13.36;99.71;101554.91;6347634;28;20058;-78
2021/09/19 00:59:58;;;;;;;1.75;1.25;;;;;;;13.33;98.75;101551.56;6347627;28;20078;-78
2021/09/19 01:03:00;;;;;;;1.58;1.13;;;;;;;13.29;98.99;101547.38;6347370;28;20055;-78
2021/09/19 01:06:03;;;;;;;1.40;1.17;;;;;;;13.20;99.19;101546.03;6347581;28;20044;-78
2021/09/19 01:09:05;;;;;;;1.92;1.30;;;;;;;13.15;99.34;101546.25;6347392;28;20052;-78
2021/09/19 01:12:08;;;;;;;2.20;1.65;;;;;;;13.09;99.62;101551.84;6347851;28;20052;-78
2021/09/19 01:15:12;;;;;;;1.08;0.98;;;;;;;13.00;99.03;101551.47;6347612;28;20517;-78
2021/09/19 01:18:17;;;;;;;3.58;0.98;;;;;;;12.96;99.62;101545.50;6347410;28;20040;-78
2021/09/19 01:21:20;;;;;;;1.15;0.85;;;;;;;12.85;99.62;101548.69;6347342;28;20055;-78
2021/09/19 01:24:25;;;;;;;1.77;1.23;;;;;;;12.78;100.00;101552.53;6347338;28;20051;-78
2021/09/19 01:27:27;;;;;;;2.38;1.25;;;;;;;12.70;100.00;101552.06;6347097;28;20058;-78
2021/09/19 01:30:28;;;;;;;1.77;1.40;;;;;;;12.67;100.00;101544.28;6347280;28;20047;-78
2021/09/19 01:33:30;;;;;;;2.47;1.38;;;;;;;12.67;100.00;101545.19;6346862;28;20048;-78
2021/09/19 01:36:34;;;;;;;1.42;1.13;;;;;;;12.66;100.00;101548.72;6346651;28;20058;-78
2021/09/19 01:39:36;;;;;;;1.63;1.20;;;;;;;12.68;100.00;101552.16;6346946;28;20051;-78
2021/09/19 01:42:38;;;;;;;2.17;1.58;;;;;;;12.65;100.00;101544.38;6347521;28;20491;-78
2021/09/19 01:45:40;;;;;;;2.80;1.25;;;;;;;12.57;100.00;101535.97;6347108;27;20051;-78
2021/09/19 01:48:42;;;;;;;1.90;0.93;;;;;;;12.53;100.00;101537.06;6351769;28;20046;-78
2021/09/19 01:51:43;;;;;;;2.95;1.83;;;;;;;12.51;100.00;101543.34;6352699;28;20047;-78
2021/09/19 01:54:46;;;;;;;2.60;1.27;;;;;;;12.51;100.00;101533.66;6351912;28;20051;-78
2021/09/19 01:57:48;;;;;;;2.50;1.15;;;;;;;12.48;100.00;101530.31;6351455;28;20050;-78
2021/09/19 02:00:49;;;;;;;3.85;1.00;;;;;;;12.53;100.00;101533.56;6351335;28;20055;-78
2021/09/19 02:03:53;;;;;;;1.98;1.35;;;;;;;12.54;100.00;101530.88;6350714;28;20047;-78
2021/09/19 02:06:54;;;;;;;1.90;1.10;;;;;;;12.56;100.00;101528.16;6350744;27;20043;-78
2021/09/19 02:09:57;;;;;;;2.88;1.33;;;;;;;12.56;100.00;101525.53;6351192;28;20050;-78
2021/09/19 02:12:58;;;;;;;3.67;1.45;;;;;;;12.57;100.00;101520.16;6350374;28;20054;-78
2021/09/19 02:16:00;;;;;;;1.58;1.20;;;;;;;12.55;100.00;101523.81;6350420;28;20054;-78
2021/09/19 02:19:02;;;;;;;3.67;1.42;;;;;;;12.55;100.00;101519.41;6350901;28;20051;-78
2021/09/19 02:22:04;;;;;;;4.10;1.40;;;;;;;12.57;100.00;101527.22;6350071;28;20055;-77
2021/09/19 02:25:08;;;;;;;1.88;1.10;;;;;;;12.53;100.00;101523.03;6349880;28;20048;-78
2021/09/19 02:28:09;;;;;;;2.80;1.38;;;;;;;12.55;100.00;101529.09;6350097;28;20047;-78
2021/09/19 02:31:10;;;;;;;2.17;1.45;;;;;;;12.47;100.00;101523.34;6349771;28;20448;-79
2021/09/19 02:34:12;;;;;;;3.13;1.38;;;;;;;12.45;100.00;101523.41;6350295;28;20055;-78
2021/09/19 02:37:13;;;;;;;2.20;1.15;;;;;;;12.47;100.00;101526.81;6350491;28;20054;-78
2021/09/19 02:40:17;;;;;;;4.18;1.50;;;;;;;12.45;100.00;101526.06;6350162;28;20044;-78
2021/09/19 02:43:19;;;;;;;2.33;1.10;;;;;;;12.47;100.00;101523.34;6350506;28;20055;-78
2021/09/19 02:46:20;;;;;;;3.72;1.23;;;;;;;12.48;100.00;101535.59;6351063;28;20055;-78
2021/09/19 02:49:22;;;;;;;3.45;1.60;;;;;;;12.46;100.00;101525.13;6350954;28;20044;-78
2021/09/19 02:52:23;;;;;;;3.47;1.60;;;;;;;12.47;100.00;101525.97;6350554;28;20077;-78
2021/09/19 02:55:26;;;;;;;2.83;1.55;;;;;;;12.43;100.00;101522.63;6350314;28;20054;-78
2021/09/19 02:58:27;;;;;;;2.63;1.25;;;;;;;12.43;100.00;101514.72;6349661;28;20044;-78
2021/09/19 03:01:28;;;;;;;2.33;1.20;;;;;;;12.37;100.00;101510.59;6350588;27;20058;-78
2021/09/19 03:04:30;;;;;;;2.25;1.30;;;;;;;12.34;100.00;101520.44;6349399;28;20600;-77
2021/09/19 03:07:31;;;;;;;4.53;1.20;;;;;;;12.37;100.00;101505.34;6350021;28;20064;-78
2021/09/19 03:10:36;;;;;;;1.98;1.40;;;;;;;12.33;100.00;101509.03;6349806;28;20055;-78
2021/09/19 03:13:37;;;;;;;4.15;1.63;;;;;;;12.36;100.00;101503.63;6349157;28;20085;-78
2021/09/19 03:16:38;;;;;;;1.98;1.33;;;;;;;12.33;100.00;101511.69;6348962;28;20399;-78
2021/09/19 03:19:40;;;;;;;2.47;1.45;;;;;;;12.33;100.00;101510.81;6348830;28;20050;-78
2021/09/19 03:22:43;;;;;;;1.15;0.90;;;;;;;12.32;100.00;101509.13;6348970;28;20047;-78
2021/09/19 03:25:46;;;;;;;2.22;1.63;;;;;;;12.35;100.00;101507.19;6348522;28;20052;-79
2021/09/19 03:28:47;;;;;;;3.28;1.40;;;;;;;12.35;100.00;101498.41;6348864;28;20052;-79
2021/09/19 03:31:48;;;;;;;1.95;1.30;;;;;;;12.35;100.00;101498.41;6348534;27;20074;-78
2021/09/19 03:34:50;;;;;;;2.95;1.65;;;;;;;12.31;100.00;101500.38;6349471;28;20048;-78
2021/09/19 03:37:51;;;;;;;2.80;1.40;;;;;;;12.32;100.00;101499.44;6349058;28;20406;-77
2021/09/19 03:40:54;;;;;;;2.35;1.48;;;;;;;12.26;100.00;101497.06;6339076;28;20047;-78
2021/09/19 03:43:56;;;;;;;3.75;1.27;;;;;;;12.31;100.00;101503.00;6330076;28;20048;-78
2021/09/19 03:46:57;;;;;;;5.10;1.48;;;;;;;12.30;100.00;101500.41;6334980;28;20051;-78
2021/09/19 03:49:59;;;;;;;4.43;1.13;;;;;;;12.30;100.00;101506.53;6333339;28;20055;-78
2021/09/19 03:53:00;;;;;;;2.05;1.52;;;;;;;12.31;100.00;101502.13;6331608;28;20047;-78
2021/09/19 03:56:03;;;;;;;3.83;1.40;;;;;;;12.28;100.00;101499.66;6323191;28;20059;-77
2021/09/19 03:59:04;;;;;;;4.47;1.70;;;;;;;12.27;100.00;101505.88;6323042;28;20040;-78
2021/09/19 04:02:05;;;;;;;2.45;1.38;;;;;;;12.29;100.00;101502.22;6323078;28;20419;-79
2021/09/19 04:05:09;;;;;;;5.75;1.23;;;;;;;12.33;100.00;101511.69;6323195;28;20055;-78
2021/09/19 04:08:10;;;;;;;4.45;1.30;;;;;;;12.31;100.00;101510.91;6323279;28;20055;-78
2021/09/19 04:11:13;;;;;;;2.13;1.10;;;;;;;12.34;100.00;101513.38;6322316;28;20052;-78
2021/09/19 04:14:14;;;;;;;3.38;1.40;;;;;;;12.38;100.00;101514.94;6325320;28;20622;-78
2021/09/19 04:17:15;;;;;;;3.15;1.75;;;;;;;12.37;100.00;101515.03;6322698;28;20056;-78
2021/09/19 04:20:17;;;;;;;1.88;1.48;;;;;;;12.35;100.00;101517.75;6323584;28;20052;-78
2021/09/19 04:23:18;;;;;;;4.18;1.30;;;;;;;12.33;100.00;101516.09;6322960;28;20048;-78
2021/09/19 04:26:21;;;;;;;3.42;1.60;;;;;;;12.33;100.00;101516.94;6332145;28;20052;-78
2021/09/19 04:29:22;;;;;;;1.88;1.35;;;;;;;12.30;100.00;101517.09;6342220;28;20044;-77
2021/09/19 04:32:24;;;;;;;5.43;1.77;;;;;;;12.31;100.00;101518.81;6341409;28;20498;-78
2021/09/19 04:35:25;;;;;;;2.13;1.10;;;;;;;12.30;100.00;101524.16;6334205;28;20498;-78
2021/09/19 04:38:27;;;;;;;1.50;1.27;;;;;;;12.31;100.00;101525.84;6333396;28;20051;-78
2021/09/19 04:41:29;;;;;;;1.77;1.30;;;;;;;12.33;100.00;101516.94;6337110;28;20499;-78
2021/09/19 04:44:30;;;;;;;2.17;1.40;;;;;;;12.34;100.00;101517.78;6335347;28;20054;-78
2021/09/19 04:47:32;;;;;;;2.10;1.30;;;;;;;12.36;100.00;101521.22;6342150;28;20270;-78
2021/09/19 04:50:34;;;;;;;2.20;1.70;;;;;;;12.33;100.00;101511.69;6335033;28;20044;-78
2021/09/19 04:53:35;;;;;;;1.85;1.27;;;;;;;12.29;100.00;101520.66;6334672;28;20047;-78
2021/09/19 04:56:38;;;;;;;3.38;1.60;;;;;;;12.31;100.00;101524.09;6332387;28;20178;-78
2021/09/19 04:59:39;;;;;;;7.57;1.25;;;;;;;12.29;100.00;101519.81;6333765;28;20047;-78
2021/09/19 05:02:41;;;;;;;2.63;1.63;;;;;;;12.32;100.00;101517.88;6333854;28;20054;-78
2021/09/19 05:05:42;;;;;;;2.38;1.25;;;;;;;12.30;100.00;101521.50;6331712;28;20048;-78
2021/09/19 05:08:43;;;;;;;1.88;1.38;;;;;;;12.27;100.00;101524.31;6333162;28;20055;-78
2021/09/19 05:11:46;;;;;;;2.10;1.52;;;;;;;12.27;100.00;101519.03;6332354;28;20411;-78
2021/09/19 05:14:49;;;;;;;2.53;1.58;;;;;;;12.28;100.00;101524.22;6332053;28;20433;-77
2021/09/19 05:17:50;;;;;;;3.67;1.67;;;;;;;12.25;100.00;101521.72;6333040;28;20055;-78
2021/09/19 05:20:51;;;;;;;2.72;1.63;;;;;;;12.29;100.00;101523.28;6334039;28;20513;-78
2021/09/19 05:23:53;;;;;;;3.58;1.67;;;;;;;12.27;100.00;101516.41;6340003;28;20051;-78
2021/09/19 05:26:56;;;;;;;4.30;1.73;;;;;;;12.24;100.00;101529.72;6337976;28;20436;-78
2021/09/19 05:29:57;;;;;;;1.98;1.20;;;;;;;12.24;100.00;101529.72;6333466;28;20052;-78
2021/09/19 05:32:58;;;;;;;3.72;1.50;;;;;;;12.13;100.00;101538.16;6339009;28;20043;-78
2021/09/19 05:36:00;;;;;;;7.70;1.85;;;;;;;12.16;100.00;101538.81;6345612;28;20403;-78
2021/09/19 05:39:01;;;;;;;2.75;1.58;;;;;;;12.22;100.00;101544.72;6351532;28;20051;-77
2021/09/19 05:42:05;;;;;;;3.13;1.98;;;;;;;12.19;100.00;101540.47;6351788;28;20047;-77
2021/09/19 05:45:08;;;;;;;4.63;2.00;;;;;;;12.25;100.00;101528.78;6351195;28;20442;-77
2021/09/19 05:48:09;;;;;;;2.97;1.58;;;;;;;12.23;100.00;101531.50;6350960;28;20048;-78
2021/09/19 05:51:11;;;;;;;2.35;1.65;;;;;;;12.19;100.00;101530.78;6350977;28;20043;-78
2021/09/19 05:54:12;;;;;;;2.65;1.83;;;;;;;12.20;100.00;101529.00;6348516;28;20047;-77
2021/09/19 05:57:15;;;;;;;2.80;1.50;;;;;;;12.16;100.00;101520.38;6338336;28;20052;-78
2021/09/19 06:00:17;;;;;;;2.55;1.40;;;;;;;12.14;100.00;101526.66;6350630;28;20047;-78
2021/09/19 06:03:18;;;;;;;3.45;1.55;;;;;;;12.15;100.00;101531.84;6350543;28;20052;-78
2021/09/19 06:06:20;;;;;;;2.10;1.73;;;;;;;12.17;100.00;101526.50;6343942;28;20055;-78
2021/09/19 06:09:21;;;;;;;2.47;1.55;;;;;;;12.16;100.00;101528.28;6350243;28;20067;-78
2021/09/19 06:12:24;;;;;;;3.55;1.73;;;;;;;12.18;100.00;101530.88;6350655;28;20052;-78
2021/09/19 06:15:25;;;;;;;3.08;1.42;;;;;;;12.22;100.00;101526.28;6350057;28;20047;-78
2021/09/19 06:18:28;;;;;;;3.50;1.45;;;;;;;12.25;100.00;101529.63;6344821;28;20043;-78
2021/09/19 06:21:30;;;;;;;2.40;1.33;;;;;;;12.29;100.00;101530.34;6324915;28;20140;-78
2021/09/19 06:24:32;;;;;;;2.47;1.60;;;;;;;12.33;100.00;101526.63;6324762;28;20048;-77
2021/09/19 06:27:35;;;;;;;4.03;2.30;;;;;;;12.33;100.00;101538.03;6324802;28;20059;-78
2021/09/19 06:30:36;;;;;;;2.83;1.10;;;;;;;12.32;100.00;101532.84;6325424;28;20140;-78
2021/09/19 06:33:38;;;;;;;1.55;1.20;;;;;;;12.34;100.00;101539.72;6323683;28;20515;-78
2021/09/19 06:36:40;;;;;;;4.32;2.00;;;;;;;12.38;100.00;101538.66;6325156;28;20059;-77
2021/09/19 06:39:41;;;;;;;3.40;1.55;;;;;;;12.42;100.00;101534.97;6391846;22;20058;-78
2021/09/19 06:42:44;;;;;;;2.88;1.80;;;;;;;12.47;100.00;101528.59;6376706;27;20051;-77
2021/09/19 06:45:45;;;;;;;3.40;1.55;;;;;;;12.51;100.00;101524.91;6376570;27;20505;-79
2021/09/19 06:48:46;;;;;;;3.33;1.58;;;;;;;12.53;100.00;101518.59;6376554;27;20050;-78
2021/09/19 06:51:48;;;;;;;3.10;1.60;;;;;;;12.51;100.00;101519.63;6376796;27;20047;-78
2021/09/19 06:54:49;;;;;;;2.88;1.70;;;;;;;12.51;100.00;101515.19;6376289;27;20043;-78
2021/09/19 06:57:56;;;;;;;3.78;2.08;;;;;;;12.50;100.00;101524.03;6376346;27;20043;-78
2021/09/19 07:00:57;;;;;;;3.30;1.60;;;;;;;12.56;100.00;101521.09;6375998;27;20046;-78
2021/09/19 07:03:59;;;;;;;3.65;1.92;;;;;;;12.56;100.00;101522.88;6375980;27;20054;-78
2021/09/19 07:07:00;;;;;;;4.68;1.83;;;;;;;12.58;100.00;101523.66;6375955;27;20055;-78
2021/09/19 07:10:01;;;;;;;3.90;1.83;;;;;;;12.65;100.00;101527.69;6375900;27;20490;-78
2021/09/19 07:13:04;;;;;;;1.90;1.40;;;;;;;12.65;100.00;101539.09;6375662;27;20441;-77
2021/09/19 07:16:05;;;;;;;2.78;1.92;;;;;;;12.73;100.00;101530.81;6375482;27;20054;-78
2021/09/19 07:19:07;;;;;;;3.90;1.83;;;;;;;12.71;100.00;101527.38;6375447;27;20046;-77
2021/09/19 07:22:08;;;;;;;3.33;1.33;;;;;;;12.77;100.00;101532.38;6374674;27;20069;-78
2021/09/19 07:25:11;;;;;;;4.80;1.65;;;;;;;12.82;100.00;101529.50;6373619;27;20050;-78
2021/09/19 07:28:14;;;;;;;2.65;1.60;;;;;;;12.90;100.00;101530.00;6375305;27;20055;-79
2021/09/19 07:31:16;;;;;;;3.67;2.08;;;;;;;12.88;100.00;101529.19;6372055;27;20484;-83
2021/09/19 07:34:18;;;;;;;3.97;1.60;;;;;;;12.90;100.00;101528.19;6375264;27;20054;-81
2021/09/19 07:37:20;;;;;;;4.00;1.88;;;;;;;12.94;100.00;101534.16;6359368;27;20047;-84
2021/09/19 07:40:23;;;;;;;3.15;1.15;;;;;;;13.02;100.00;101536.41;6350110;28;20074;-83
2021/09/19 07:43:26;;;;;;;3.22;1.95;;;;;;;13.01;100.00;101537.34;6351070;28;20044;-84
2021/09/19 07:46:28;;;;;;;3.25;1.60;;;;;;;13.02;100.00;101542.53;6351681;28;20052;-84
2021/09/19 07:49:30;;;;;;;2.13;1.08;;;;;;;13.10;100.00;101542.16;6350417;28;20066;-84
2021/09/19 07:52:32;;;;;;;5.30;1.40;;;;;;;13.18;100.00;101542.63;6350061;28;20054;-84
2021/09/19 07:55:34;;;;;;;1.58;1.13;;;;;;;13.23;100.00;101551.19;6367092;27;20047;-83
2021/09/19 07:58:37;;;;;;;5.32;1.67;;;;;;;13.26;100.00;101550.16;6378002;27;20043;-84
2021/09/19 08:01:38;;;;;;;3.78;1.52;;;;;;;13.26;100.00;101558.94;6376220;27;20043;-83
2021/09/19 08:04:39;;;;;;;2.88;1.55;;;;;;;13.29;100.00;101556.13;6374496;27;20058;-83
2021/09/19 08:07:41;;;;;;;3.13;1.50;;;;;;;13.35;100.00;101557.59;6374792;27;20422;-83
2021/09/19 08:10:42;;;;;;;1.38;1.02;;;;;;;13.39;100.00;101557.34;6374806;27;20050;-83
2021/09/19 08:13:46;;;;;;;2.67;1.42;;;;;;;13.44;100.00;101562.41;6374211;27;20058;-84
2021/09/19 08:16:47;;;;;;;2.25;1.60;;;;;;;13.44;100.00;101573.84;6375742;27;20047;-83
2021/09/19 08:19:48;;;;;;;2.33;1.50;;;;;;;13.47;100.00;101574.59;6377345;27;20058;-84
2021/09/19 08:22:50;;;;;;;3.70;1.40;;;;;;;13.45;99.71;101572.06;6376244;27;20054;-83
2021/09/19 08:25:51;;;;;;;2.65;1.73;;;;;;;13.47;98.83;101580.72;6375387;27;20051;-83
2021/09/19 08:28:54;;;;;;;2.95;1.50;;;;;;;13.50;99.61;101585.88;6375525;27;20047;-82
2021/09/19 08:31:55;;;;;;;1.75;1.48;;;;;;;13.47;99.13;101590.44;6373225;27;20076;-83
2021/09/19 08:34:56;;;;;;;1.77;1.40;;;;;;;13.49;99.62;101596.50;6374649;27;20073;-84
2021/09/19 08:37:58;;;;;;;2.47;1.33;;;;;;;13.53;99.38;101590.97;6374447;27;20414;-82
2021/09/19 08:41:00;;;;;;;3.35;1.52;;;;;;;13.52;99.31;101601.63;6373345;27;20043;-81
2021/09/19 08:44:03;;;;;;;1.65;1.20;;;;;;;13.55;100.00;101604.13;6373697;27;20395;-80
2021/09/19 08:47:04;;;;;;;1.98;1.30;;;;;;;13.61;100.00;101601.13;6374781;27;20051;-82
2021/09/19 08:50:09;;;;;;;2.17;1.60;;;;;;;13.65;98.77;101600.91;6374046;27;20140;-80
2021/09/19 08:53:12;;;;;;;2.75;1.63;;;;;;;13.66;98.80;101601.75;6373075;27;20047;-81
2021/09/19 08:56:22;;;;;;;3.25;1.40;;;;;;;13.59;97.71;101603.88;6371590;27;20047;-80
2021/09/19 08:59:24;;;;;;;4.28;2.03;;;;;;;13.61;97.52;101602.00;6373233;27;20090;-80
2021/09/19 09:02:26;;;;;;;2.35;1.42;;;;;;;13.68;98.06;101597.25;6366845;27;20510;-81
2021/09/19 09:05:29;;;;;;;3.10;1.58;;;;;;;13.74;98.29;101598.72;6346586;28;20055;-81
2021/09/19 09:08:33;;;;;;;1.50;1.20;;;;;;;13.84;98.08;101592.00;6349387;28;20048;-80
2021/09/19 09:11:34;;;;;;;2.65;1.45;;;;;;;13.85;96.95;101609.56;6349775;28;20047;-82
2021/09/19 09:14:41;;;;;;;2.22;1.45;;;;;;;13.91;95.33;101609.25;6348790;28;20130;-83
2021/09/19 09:17:42;;;;;;;1.15;1.05;;;;;;;13.91;95.72;101607.44;6348286;28;20051;-82
2021/09/19 09:20:58;;;;;;;3.05;1.45;;;;;;;13.92;94.74;101601.22;6349144;28;20091;-82
2021/09/19 09:24:03;;;;;;;2.08;1.10;;;;;;;13.88;95.28;101607.59;6349707;28;20047;-83
2021/09/19 09:27:20;;;;;;;2.03;1.33;;;;;;;13.96;94.48;101615.13;6350144;28;20055;-82
2021/09/19 09:30:25;;;;;;;2.80;1.50;;;;;;;13.98;94.72;101605.31;6348492;27;20047;-81
2021/09/19 09:33:26;;;;;;;3.50;1.10;;;;;;;14.06;94.89;101613.69;6345577;28;20043;-80
2021/09/19 09:36:47;;;;;;;1.95;1.30;;;;;;;14.05;93.81;101609.34;6348738;28;20506;-81
2021/09/19 09:39:49;;;;;;;2.88;1.52;;;;;;;14.05;92.90;101604.06;6348193;28;20050;-82
2021/09/19 09:43:10;;;;;;;2.83;1.17;;;;;;;14.11;93.10;101616.09;6349185;28;20048;-82
2021/09/19 09:46:13;;;;;;;2.90;1.65;;;;;;;14.17;93.55;101621.91;6347669;28;20055;-81
2021/09/19 09:49:14;;;;;;;2.20;1.30;;;;;;;14.28;93.28;101612.53;6349047;28;20047;-82
2021/09/19 09:52:20;;;;;;;2.42;1.45;;;;;;;14.35;90.26;101613.88;6347795;28;20047;-83
2021/09/19 09:55:22;;;;;;;2.50;1.42;;;;;;;14.35;89.06;101616.53;6347105;28;20044;-83
2021/09/19 09:58:24;;;;;;;2.47;1.15;;;;;;;14.40;89.84;101614.50;6348027;28;20123;-82
2021/09/19 10:01:27;;;;;;;2.15;1.20;;;;;;;14.39;87.28;101607.50;6348006;28;20044;-83
2021/09/19 10:04:29;;;;;;;5.75;1.85;;;;;;;14.52;87.83;101616.47;6347554;28;20047;-82
2021/09/19 10:07:31;;;;;;;1.20;1.02;;;;;;;14.50;86.17;101609.59;6348502;28;20054;-82
2021/09/19 10:10:39;;;;;;;1.80;1.05;;;;;;;14.51;86.16;101617.44;6353344;28;20553;-82
2021/09/19 10:13:44;;;;;;;4.40;2.17;;;;;;;14.52;86.50;101613.00;6352090;28;20479;-83
2021/09/19 10:16:47;;;;;;;1.95;1.05;;;;;;;14.40;84.31;101603.94;6352556;28;20070;-83
2021/09/19 10:19:50;;;;;;;3.67;1.10;;;;;;;14.35;86.08;101612.13;6352122;28;20521;-82
2021/09/19 10:22:57;;;;;;;14.90;5.05;;;;;;;14.40;84.28;101618.00;6352179;28;20067;-83
2021/09/19 10:26:00;;;;;;;5.63;2.88;;;;;;;14.39;85.43;101612.78;6351693;28;20665;-83
2021/09/19 10:29:03;;;;;;;7.68;3.25;;;;;;;14.41;87.42;101613.56;6352100;28;20069;-82
2021/09/19 10:32:05;;;;;;;3.88;1.73;;;;;;;14.49;87.95;101608.75;6351330;28;20044;-82
2021/09/19 10:35:27;;;;;;;3.50;2.17;;;;;;;14.56;86.31;101612.72;6351490;28;20560;-83
2021/09/19 10:38:35;;;;;;;4.15;1.65;;;;;;;14.62;81.19;101601.78;6351275;28;20074;-83
2021/09/19 10:41:36;;;;;;;2.33;1.77;;;;;;;14.68;83.37;101611.19;6351414;28;20069;-83
2021/09/19 10:45:03;;;;;;;1.45;1.25;;;;;;;14.73;81.56;101600.34;6351235;28;20055;-82
2021/09/19 10:48:14;;;;;;;2.40;0.95;;;;;;;14.72;82.66;101599.50;6351183;28;20486;-82
2021/09/19 10:51:15;;;;;;;1.77;1.00;;;;;;;14.65;80.26;101596.34;6351334;27;20063;-82
2021/09/19 10:54:43;;;;;;;1.13;0.93;;;;;;;14.55;80.50;101592.50;6350227;28;20073;-81
2021/09/19 10:57:54;;;;;;;3.47;1.35;;;;;;;14.47;82.25;101594.69;6350827;27;20056;-84
2021/09/19 11:01:15;;;;;;;2.22;1.25;;;;;;;14.35;82.36;101596.25;6350818;28;20051;-83
2021/09/19 11:04:18;;;;;;;5.53;1.40;;;;;;;14.26;79.56;101593.25;6350863;28;20414;-84
2021/09/19 11:07:19;;;;;;;1.73;1.00;;;;;;;14.25;79.48;101600.31;6350463;28;20047;-84
2021/09/19 11:10:21;;;;;;;1.17;1.00;;;;;;;14.23;82.74;101604.84;6350902;28;20044;-83
2021/09/19 11:13:26;;;;;;;3.05;1.27;;;;;;;14.18;84.13;101597.19;6350243;28;20055;-81
2021/09/19 11:16:36;;;;;;;1.77;1.02;;;;;;;14.21;83.17;101596.13;6351137;28;20047;-83
2021/09/19 11:19:39;;;;;;;1.25;0.88;;;;;;;14.18;83.07;101597.19;6349715;28;20055;-83
2021/09/19 11:22:41;;;;;;;1.63;1.00;;;;;;;14.21;83.93;101601.44;6350813;28;20055;-84
2021/09/19 11:25:42;;;;;;;1.88;1.13;;;;;;;14.28;83.20;101601.97;6349743;28;20048;-84
2021/09/19 11:28:44;;;;;;;1.92;1.13;;;;;;;14.29;80.46;101604.50;6350432;28;20059;-84
2021/09/19 11:31:48;;;;;;;3.30;1.00;;;;;;;14.31;80.84;101591.22;6349929;28;20051;-83
2021/09/19 11:34:51;;;;;;;1.48;0.80;;;;;;;14.31;80.77;101596.50;6350208;28;20048;-84
2021/09/19 11:37:55;;;;;;;1.98;0.90;;;;;;;14.29;80.13;101599.22;6349389;28;20047;-83
2021/09/19 11:41:00;;;;;;;1.17;0.95;;;;;;;14.29;80.68;101593.94;6350024;28;20039;-83
2021/09/19 11:44:02;;;;;;;1.55;0.82;;;;;;;14.28;81.06;101592.22;6349295;28;20055;-83
2021/09/19 11:47:06;;;;;;;0.95;0.77;;;;;;;14.31;80.55;101593.88;6349386;28;20415;-82
2021/09/19 11:50:10;;;;;;;3.45;1.70;;;;;;;14.35;80.65;101585.69;6349373;28;20047;-82
2021/09/19 11:53:11;;;;;;;2.50;1.15;;;;;;;14.38;79.60;101595.22;6349358;28;20047;-83
2021/09/19 11:56:14;;;;;;;1.77;1.10;;;;;;;14.39;80.87;101584.53;6353601;27;20052;-84
2021/09/19 11:59:18;;;;;;;1.45;0.98;;;;;;;14.43;81.80;101582.59;6374399;27;20058;-82
2021/09/19 12:02:20;;;;;;;1.27;0.82;;;;;;;14.49;80.68;101582.28;6374001;27;20051;-83
2021/09/19 12:05:25;;;;;;;2.03;1.08;;;;;;;14.51;79.52;101572.47;6373716;27;20054;-84
2021/09/19 12:08:28;;;;;;;1.63;0.98;;;;;;;14.56;78.34;101588.94;6374056;27;20493;-83
2021/09/19 12:11:45;;;;;;;1.55;1.17;;;;;;;14.55;80.11;101587.22;6373739;27;20050;-84
2021/09/19 12:14:48;;;;;;;2.55;1.38;;;;;;;14.51;79.96;101592.78;6373519;27;20058;-83
2021/09/19 12:18:03;;;;;;;3.10;1.50;;;;;;;14.39;78.83;101589.81;6373666;27;20486;-84
2021/09/19 12:21:09;;;;;;;2.40;1.30;;;;;;;14.40;81.77;101590.72;6374908;27;20043;-84
2021/09/19 12:24:11;;;;;;;2.25;0.95;;;;;;;14.41;82.08;101590.63;6374270;27;20054;-83
2021/09/19 12:27:15;;;;;;;2.35;1.30;;;;;;;14.46;79.45;101580.63;6375053;27;20043;-84
2021/09/19 12:30:17;;;;;;;0.93;0.77;;;;;;;14.47;78.22;101579.69;6373674;27;20051;-84
2021/09/19 12:33:53;;;;;;;0.98;0.90;;;;;;;14.48;78.32;101583.22;6374532;27;20485;-85
2021/09/19 12:36:57;;;;;;;1.30;0.98;;;;;;;14.52;79.54;101570.66;6375619;27;20051;-86
2021/09/19 12:40:04;;;;;;;1.85;1.30;;;;;;;14.57;81.49;101574.75;6373709;27;20138;-83
2021/09/19 12:43:08;;;;;;;1.77;1.00;;;;;;;14.62;78.96;101571.84;6373670;27;20056;-83
2021/09/19 12:46:13;;;;;;;1.20;0.95;;;;;;;14.68;80.12;101572.38;6373056;27;20050;-83
2021/09/19 12:49:19;;;;;;;4.70;1.00;;;;;;;14.76;79.90;101565.75;6373641;27;20046;-83
2021/09/19 12:52:30;;;;;;;2.17;1.02;;;;;;;14.74;79.90;101567.66;6373194;27;20069;-81
2021/09/19 12:55:33;;;;;;;1.40;1.00;;;;;;;14.71;79.61;101566.88;6372858;27;20055;-82
2021/09/19 12:58:34;;;;;;;1.35;0.85;;;;;;;14.70;81.55;101553.75;6372945;27;20103;-82
2021/09/19 13:01:36;;;;;;;2.25;1.20;;;;;;;14.66;79.03;101562.78;6373176;27;20050;-83
2021/09/19 13:04:37;;;;;;;1.73;0.95;;;;;;;14.60;78.88;101561.38;6372341;27;20066;-82
2021/09/19 13:07:40;;;;;;;0.93;0.75;;;;;;;14.58;79.22;101559.72;6373147;27;20511;-84
2021/09/19 13:10:41;;;;;;;1.10;0.90;;;;;;;14.52;79.85;101562.75;6372829;27;20051;-83
2021/09/19 13:13:42;;;;;;;1.30;0.80;;;;;;;14.47;79.32;101557.66;6372681;27;20039;-82
2021/09/19 13:16:44;;;;;;;2.13;0.90;;;;;;;14.41;79.56;101564.16;6372997;27;20629;-82
2021/09/19 13:19:45;;;;;;;2.08;1.23;;;;;;;14.39;79.46;101565.19;6372684;27;20055;-82
2021/09/19 13:22:48;;;;;;;1.80;1.27;;;;;;;14.37;79.35;101554.69;6373249;27;20062;-81
2021/09/19 13:25:49;;;;;;;2.17;1.27;;;;;;;14.39;79.31;101550.16;6372748;27;20043;-82
2021/09/19 13:28:51;;;;;;;1.73;0.93;;;;;;;14.44;79.25;101555.19;6372659;27;20055;-81
2021/09/19 13:31:52;;;;;;;1.27;0.90;;;;;;;14.52;80.60;101554.78;6372115;27;20050;-82
2021/09/19 13:34:53;;;;;;;1.98;1.23;;;;;;;14.57;77.91;101555.38;6372591;27;20058;-82
2021/09/19 13:37:56;;;;;;;2.00;0.88;;;;;;;14.63;76.31;101547.13;6372519;28;20050;-82
2021/09/19 13:40:57;;;;;;;1.38;1.23;;;;;;;14.70;75.12;101549.31;6372651;27;20043;-83
2021/09/19 13:43:59;;;;;;;3.42;1.35;;;;;;;14.65;75.91;101543.44;6377553;27;20798;-81
2021/09/19 13:47:00;;;;;;;3.38;1.30;;;;;;;14.65;77.10;101543.44;6377814;27;20047;-82
2021/09/19 13:50:02;;;;;;;1.35;1.10;;;;;;;14.63;77.69;101547.97;6377874;27;20078;-82
2021/09/19 13:53:04;;;;;;;1.73;1.08;;;;;;;14.61;78.75;101546.34;6378003;27;20058;-82
2021/09/19 13:56:06;;;;;;;1.45;1.00;;;;;;;14.61;78.99;101546.34;6377722;27;20047;-83
2021/09/19 13:59:07;;;;;;;1.98;1.02;;;;;;;14.59;77.73;101549.09;6377182;27;20497;-82
2021/09/19 14:02:08;;;;;;;0.95;0.63;;;;;;;14.56;78.71;101546.59;6376954;27;20050;-84
2021/09/19 14:05:11;;;;;;;2.33;1.08;;;;;;;14.55;79.58;101552.00;6376663;27;20051;-82
2021/09/19 14:08:14;;;;;;;2.92;1.23;;;;;;;14.56;80.71;101549.25;6377022;27;20043;-83